Time;durP1;ratioP1;P1;durP2;ratioP2;P2;SDS_P1;SDS_P2;PMS_P1;PMS_P2;Temp;Humidity;BMP_temperature;BMP_pressure;BME280_temperature;BME280_humidity;BME280_pressure;Samples;Min_cycle;Max_cycle;Signal;HPM_P1;HPM_P2
2021/10/17 00:00:52;;;;;;;;;;;;;;;6.04;93.31;99998.13;4985700;28;20002;-82
2021/10/17 00:03:17;;;;;;;;;;;;;;;6.03;93.45;100002.53;4984968;28;19960;-83
2021/10/17 00:05:43;;;;;;;;;;;;;;;6.06;93.83;100001.59;5003955;28;19929;-82
2021/10/17 00:08:09;;;;;;;;;;;;;;;6.09;93.90;100012.06;4985439;28;19933;-80
2021/10/17 00:10:35;;;;;;;;;;;;;;;6.10;94.01;100003.28;4985541;28;20340;-83
2021/10/17 00:13:01;;;;;;;;;;;;;;;6.10;94.16;100005.91;4985153;28;19921;-83
2021/10/17 00:15:27;;;;;;;;;;;;;;;6.16;94.41;100008.41;5003387;28;20381;-82
2021/10/17 00:17:53;;;;;;;;;;;;;;;6.16;94.69;100004.00;5001573;28;20357;-83
2021/10/17 00:20:19;;;;;;;;;;;;;;;6.16;94.62;99998.75;5002048;28;20022;-83
2021/10/17 00:22:45;;;;;;;;;;;;;;;6.19;94.52;99997.81;5003084;28;19928;-84
2021/10/17 00:25:11;;;;;;;;;;;;;;;6.18;94.18;100003.97;5002695;28;20292;-82
2021/10/17 00:27:37;;;;;;;;;;;;;;;6.19;93.86;100003.09;5003252;28;19922;-83
2021/10/17 00:30:03;;;;;;;;;;;;;;;6.21;93.72;99997.75;5002472;28;19922;-83
2021/10/17 00:32:28;;;;;;;;;;;;;;;6.22;93.58;100002.97;5001722;28;19964;-84
2021/10/17 00:34:54;;;;;;;;;;;;;;;6.27;93.42;100001.16;5002926;28;19972;-83
2021/10/17 00:37:19;;;;;;;;;;;;;;;6.26;93.35;100003.81;5001942;28;19976;-83
2021/10/17 00:39:45;;;;;;;;;;;;;;;6.28;93.30;100002.00;5001361;28;19969;-84
2021/10/17 00:42:11;;;;;;;;;;;;;;;6.27;93.45;99993.25;5002888;28;19924;-83
2021/10/17 00:44:38;;;;;;;;;;;;;;;6.30;93.53;99995.81;5003064;28;19924;-83
2021/10/17 00:47:03;;;;;;;;;;;;;;;6.33;93.61;99989.59;5002136;28;20357;-85
2021/10/17 00:49:29;;;;;;;;;;;;;;;6.32;93.69;99994.00;4983706;28;20024;-83
2021/10/17 00:51:54;;;;;;;;;;;;;;;6.35;94.02;99987.78;5002054;28;19922;-83
2021/10/17 00:54:19;;;;;;;;;;;;;;;6.45;94.18;99985.84;5002331;28;19921;-83
2021/10/17 00:56:45;;;;;;;;;;;;;;;6.51;94.48;99988.31;5002177;28;19917;-83
2021/10/17 00:59:11;;;;;;;;;;;;;;;6.54;95.03;99985.59;4984670;28;19996;-83
2021/10/17 01:01:38;;;;;;;;;;;;;;;6.55;95.17;99979.44;4984457;28;19921;-84
2021/10/17 01:04:03;;;;;;;;;;;;;;;6.52;95.92;99975.13;5000531;28;19925;-83
2021/10/17 01:06:29;;;;;;;;;;;;;;;6.45;95.96;99984.06;5007839;28;19977;-83
2021/10/17 01:08:54;;;;;;;;;;;;;;;6.34;95.71;99976.41;5011193;28;19967;-89
2021/10/17 03:20:34;;;;;;;;;;;;;;;7.45;100.00;99915.69;4973735;28;19973;-83
2021/10/17 03:23:00;;;;;;;;;;;;;;;7.43;100.00;99912.19;4974828;28;19930;-83
2021/10/17 03:25:25;;;;;;;;;;;;;;;7.48;100.00;99919.97;4974661;28;20389;-83
2021/10/17 03:27:50;;;;;;;;;;;;;;;7.45;100.00;99910.41;4974133;28;19929;-83
2021/10/17 03:30:16;;;;;;;;;;;;;;;7.50;100.00;99912.91;4974698;28;20333;-84
2021/10/17 03:32:42;;;;;;;;;;;;;;;7.52;100.00;99907.59;4973283;28;20024;-84
2021/10/17 03:35:07;;;;;;;;;;;;;;;7.54;100.00;99908.41;4974648;28;19918;-83
2021/10/17 03:37:33;;;;;;;;;;;;;;;7.56;100.00;99906.59;4974362;28;20417;-84
2021/10/17 03:39:58;;;;;;;;;;;;;;;7.57;100.00;99903.06;4974547;28;19918;-84
2021/10/17 03:42:24;;;;;;;;;;;;;;;7.61;100.00;99907.31;4974619;28;19918;-84
2021/10/17 03:44:49;;;;;;;;;;;;;;;7.60;100.00;99898.56;4974385;28;20281;-83
2021/10/17 03:47:14;;;;;;;;;;;;;;;7.60;100.00;99900.34;4972907;28;20252;-84
2021/10/17 03:49:40;;;;;;;;;;;;;;;7.62;100.00;99902.00;4956537;28;19921;-82
2021/10/17 03:52:06;;;;;;;;;;;;;;;7.56;100.00;99906.59;4956469;28;20327;-83
2021/10/17 03:54:31;;;;;;;;;;;;;;;5.84;100.00;99907.34;4974059;28;19953;-82
2021/10/17 03:56:56;;;;;;;;;;;;;;;4.89;100.00;99913.53;4974182;28;19918;-85
2021/10/17 03:59:21;;;;;;;;;;;;;;;4.42;100.00;99902.09;4974013;28;20016;-82
2021/10/17 04:01:47;;;;;;;;;;;;;;;4.25;100.00;99914.59;4973937;28;19972;-83
2021/10/17 04:04:12;;;;;;;;;;;;;;;4.02;100.00;99918.44;4972754;28;19925;-82
2021/10/17 04:06:37;;;;;;;;;;;;;;;3.87;100.00;99921.25;4973969;28;20301;-82
2021/10/17 04:09:03;;;;;;;;;;;;;;;3.75;100.00;99922.25;4974131;28;19961;-82
2021/10/17 04:11:28;;;;;;;;;;;;;;;3.73;100.00;99919.66;4973719;28;19997;-82
2021/10/17 04:13:53;;;;;;;;;;;;;;;3.67;100.00;99921.50;4973772;28;19918;-82
2021/10/17 04:16:19;;;;;;;;;;;;;;;3.60;100.00;99915.47;4973752;28;19922;-82
2021/10/17 04:18:44;;;;;;;;;;;;;;;3.52;100.00;99922.56;4972276;28;20392;-81
2021/10/17 04:21:09;;;;;;;;;;;;;;;3.39;100.00;99925.31;4973746;28;19925;-82
2021/10/17 04:23:34;;;;;;;;;;;;;;;3.39;100.00;99919.22;4973653;28;19918;-82
2021/10/17 04:26:00;;;;;;;;;;;;;;;3.61;100.00;99923.31;4973707;28;19972;-82
2021/10/17 04:28:25;;;;;;;;;;;;;;;3.64;100.00;99919.78;4973601;28;19922;-82
2021/10/17 04:30:50;;;;;;;;;;;;;;;3.51;100.00;99924.31;4973563;28;19964;-82
2021/10/17 04:33:15;;;;;;;;;;;;;;;3.38;100.00;99923.59;4972199;28;20394;-82
2021/10/17 04:35:41;;;;;;;;;;;;;;;3.34;100.00;99919.25;4973453;28;19918;-81
2021/10/17 04:38:07;;;;;;;;;;;;;;;3.21;100.00;99922.91;4972561;28;20009;-82
2021/10/17 04:40:33;;;;;;;;;;;;;;;3.18;100.00;99925.56;4955752;28;19962;-81
2021/10/17 04:42:59;;;;;;;;;;;;;;;3.20;100.00;99929.03;4955874;28;19981;-83
2021/10/17 04:45:24;;;;;;;;;;;;;;;3.04;100.00;99930.91;4973639;28;20020;-82
2021/10/17 04:47:49;;;;;;;;;;;;;;;2.90;100.00;99925.81;4971893;28;20404;-81
2021/10/17 04:50:14;;;;;;;;;;;;;;;2.89;100.00;99927.56;4973345;28;19968;-82
2021/10/17 04:52:40;;;;;;;;;;;;;;;2.85;100.00;99930.22;4973243;28;20428;-82
2021/10/17 04:55:08;;;;;;;;;;;;;;;2.80;100.00;99921.56;4973346;28;19922;-82
2021/10/17 04:57:33;;;;;;;;;;;;;;;2.80;100.00;99924.19;4955649;28;19918;-81
2021/10/17 04:59:58;;;;;;;;;;;;;;;2.67;100.00;99912.94;4973235;28;19929;-82
2021/10/17 05:02:23;;;;;;;;;;;;;;;2.67;100.00;99926.88;4971847;28;20312;-83
2021/10/17 05:04:49;;;;;;;;;;;;;;;2.64;100.00;99924.28;4973158;28;20284;-81
2021/10/17 05:07:14;;;;;;;;;;;;;;;2.64;100.00;99933.91;4973265;28;19940;-81
2021/10/17 05:09:39;;;;;;;;;;;;;;;2.64;100.00;99933.91;4973147;28;20257;-82
2021/10/17 05:12:05;;;;;;;;;;;;;;;2.56;100.00;99933.97;4973306;28;19929;-81
2021/10/17 05:14:30;;;;;;;;;;;;;;;2.50;100.00;99937.47;4973064;28;19918;-82
2021/10/17 05:16:55;;;;;;;;;;;;;;;2.51;100.00;99934.00;4973400;28;20123;-81
2021/10/17 12:45:09;;;;;;;;;;;;;;;6.31;97.47;99997.53;5742950;23;20007;-79
2021/10/17 12:47:39;;;;;;;;;;;;;;;6.31;97.93;99997.53;5002040;28;19921;-80
2021/10/17 12:50:11;;;;;;;;;;;;;;;6.36;98.51;99995.66;5001129;28;19964;-79
2021/10/17 12:52:37;;;;;;;;;;;;;;;6.46;98.83;99992.81;5002070;28;19917;-79
2021/10/17 12:55:02;;;;;;;;;;;;;;;6.51;99.45;99989.19;5002834;28;19928;-79
2021/10/17 12:57:27;;;;;;;;;;;;;;;6.57;100.00;99992.59;5002686;28;19968;-79
2021/10/17 12:59:54;;;;;;;;;;;;;;;6.55;100.00;99985.56;5000109;28;20291;-80
2021/10/17 13:02:19;;;;;;;;;;;;;;;6.51;100.00;99990.94;4999999;28;20377;-79
2021/10/17 13:04:49;;;;;;;;;;;;;;;6.44;100.00;99987.59;5002501;28;20008;-81
2021/10/17 13:07:34;;;;;;;;;;;;;;;6.33;100.00;99985.22;5003041;28;20281;-80
2021/10/17 13:10:03;;;;;;;;;;;;;;;6.15;99.75;99988.25;5001624;28;20255;-80
2021/10/17 13:12:29;;;;;;;;;;;;;;;5.95;98.05;99980.72;5002472;28;19925;-80
2021/10/17 13:14:54;;;;;;;;;;;;;;;5.67;96.62;99973.41;5001160;28;19968;-79
2021/10/17 13:17:20;;;;;;;;;;;;;;;5.50;96.23;99981.63;5001946;28;19913;-79
2021/10/17 13:19:45;;;;;;;;;;;;;;;5.51;96.65;99980.72;5001923;28;19925;-80
2021/10/17 13:22:10;;;;;;;;;;;;;;;5.52;97.44;99990.34;5002710;28;20292;-80
2021/10/17 13:24:36;;;;;;;;;;;;;;;5.58;99.76;99979.69;5002454;28;20069;-80
2021/10/17 13:27:01;;;;;;;;;;;;;;;5.75;100.00;99981.16;5001871;28;20479;-80
2021/10/17 13:29:26;;;;;;;;;;;;;;;5.95;100.00;99986.88;5000671;28;19913;-80
2021/10/17 13:31:51;;;;;;;;;;;;;;;6.14;100.00;99978.59;5002408;28;19928;-80
2021/10/17 13:34:17;;;;;;;;;;;;;;;6.33;100.00;99971.19;5001987;28;19965;-80
2021/10/17 13:36:42;;;;;;;;;;;;;;;6.48;100.00;99977.88;5001789;28;20356;-79
2021/10/17 13:39:07;;;;;;;;;;;;;;;6.57;100.00;99975.00;5001904;28;19918;-80
2021/10/17 13:41:32;;;;;;;;;;;;;;;6.66;100.00;99977.44;5002428;28;19922;-80
2021/10/17 13:43:58;;;;;;;;;;;;;;;6.72;100.00;99974.66;5000638;28;19949;-80
2021/10/17 13:46:23;;;;;;;;;;;;;;;6.73;100.00;99971.13;5001481;28;19931;-80
2021/10/17 13:48:49;;;;;;;;;;;;;;;6.80;100.00;99968.34;5002018;28;19917;-80
2021/10/17 13:51:14;;;;;;;;;;;;;;;6.83;100.00;99973.50;5002191;28;20554;-80
2021/10/17 13:53:39;;;;;;;;;;;;;;;6.87;100.00;99967.28;5001501;28;19973;-79
2021/10/17 13:56:05;;;;;;;;;;;;;;;6.87;100.00;99960.22;5001763;28;19928;-80
2021/10/17 13:58:30;;;;;;;;;;;;;;;6.93;100.00;99959.22;5002336;28;19924;-80
2021/10/17 14:00:55;;;;;;;;;;;;;;;6.96;100.00;99969.69;5000300;28;19969;-80
2021/10/17 14:03:21;;;;;;;;;;;;;;;7.02;100.00;99968.66;5001479;28;19968;-79
2021/10/17 14:05:46;;;;;;;;;;;;;;;7.02;100.00;99972.19;5001848;28;19972;-79
2021/10/17 14:08:11;;;;;;;;;;;;;;;7.05;100.00;99961.56;5001499;28;19929;-81
2021/10/17 14:10:36;;;;;;;;;;;;;;;7.07;100.00;99957.09;5002310;28;19969;-80
2021/10/17 14:13:03;;;;;;;;;;;;;;;7.11;100.00;99968.44;5005432;28;19929;-80
2021/10/17 14:15:28;;;;;;;;;;;;;;;7.13;100.00;99958.69;5003778;28;19930;-80
2021/10/17 14:17:54;;;;;;;;;;;;;;;7.13;100.00;99963.13;5004353;28;20025;-80
2021/10/17 14:20:19;;;;;;;;;;;;;;;7.15;100.00;99961.31;5004868;28;19921;-80
2021/10/17 14:22:45;;;;;;;;;;;;;;;7.18;100.00;99966.50;5003795;28;19924;-80
2021/10/17 14:25:11;;;;;;;;;;;;;;;7.19;100.00;99962.97;5004958;28;20350;-80
2021/10/17 14:27:36;;;;;;;;;;;;;;;6.18;100.00;99985.56;5005108;28;19922;-80
2021/10/17 14:30:04;;;;;;;;;;;;;;;4.91;100.00;99993.19;5003627;28;20324;-80
2021/10/17 14:32:29;;;;;;;;;;;;;;;4.34;100.00;99978.28;5004713;28;20296;-80
2021/10/17 14:34:54;;;;;;;;;;;;;;;3.96;100.00;99982.28;5003993;28;19924;-80
2021/10/17 14:37:20;;;;;;;;;;;;;;;3.81;100.00;99980.75;5005123;28;20439;-79
2021/10/17 14:39:46;;;;;;;;;;;;;;;3.68;100.00;99971.25;5003610;28;19917;-80
2021/10/17 14:42:14;;;;;;;;;;;;;;;3.55;100.00;99978.41;5004580;28;19959;-80
2021/10/17 14:44:39;;;;;;;;;;;;;;;3.36;100.00;99988.22;5003745;28;19928;-80
2021/10/17 14:47:05;;;;;;;;;;;;;;;3.32;100.00;99986.53;5004460;28;19926;-80
2021/10/17 14:49:30;;;;;;;;;;;;;;;3.32;100.00;99986.53;5004316;28;20364;-80
2021/10/17 14:51:55;;;;;;;;;;;;;;;3.20;98.93;99982.25;5004738;28;20340;-80
2021/10/17 14:54:20;;;;;;;;;;;;;;;3.14;97.96;99987.53;5004405;28;20284;-80
2021/10/17 14:56:46;;;;;;;;;;;;;;;2.99;97.21;99987.69;5002987;28;19918;-80
2021/10/17 14:59:12;;;;;;;;;;;;;;;2.99;95.76;99970.22;5002920;28;19932;-80
2021/10/17 15:01:37;;;;;;;;;;;;;;;2.89;95.21;99976.44;5004632;28;19921;-80
2021/10/17 15:04:03;;;;;;;;;;;;;;;2.85;94.15;99974.72;5004414;28;19932;-80
2021/10/17 15:06:28;;;;;;;;;;;;;;;2.72;93.88;99985.28;5003944;28;19921;-79
2021/10/17 15:08:53;;;;;;;;;;;;;;;2.69;93.78;99982.69;5004128;28;19917;-80
2021/10/17 15:11:19;;;;;;;;;;;;;;;2.68;94.43;99983.59;5004436;28;20008;-80
2021/10/17 15:13:44;;;;;;;;;;;;;;;2.66;93.66;99990.56;5003884;28;19925;-80
2021/10/17 15:16:10;;;;;;;;;;;;;;;2.56;93.07;99985.41;5002389;28;20372;-79
2021/10/17 15:18:35;;;;;;;;;;;;;;;2.51;92.31;99983.69;5003607;28;19941;-79
2021/10/17 15:21:00;;;;;;;;;;;;;;;2.57;91.89;99988.03;5002434;28;19921;-80
2021/10/17 15:23:26;;;;;;;;;;;;;;;2.43;91.71;99988.09;5002982;28;19931;-80
2021/10/17 15:25:52;;;;;;;;;;;;;;;2.36;91.21;99989.00;5004127;28;20310;-80
2021/10/17 15:28:17;;;;;;;;;;;;;;;2.33;91.42;99991.63;5003916;28;19995;-80
2021/10/17 15:30:46;;;;;;;;;;;;;;;2.28;91.10;99989.09;5002667;28;19957;-80
2021/10/17 15:33:11;;;;;;;;;;;;;;;2.25;90.89;99983.88;5002882;28;19975;-80
2021/10/17 15:35:36;;;;;;;;;;;;;;;2.20;90.79;99988.22;5003606;28;19917;-80
2021/10/17 15:38:02;;;;;;;;;;;;;;;2.11;90.40;99986.56;5003759;28;19917;-81
2021/10/17 15:40:27;;;;;;;;;;;;;;;2.13;90.22;99983.94;5003602;28;19957;-81
2021/10/17 15:42:53;;;;;;;;;;;;;;;2.09;89.94;99985.69;5002047;28;19922;-80
2021/10/17 15:45:20;;;;;;;;;;;;;;;2.07;89.38;99989.19;5001922;28;19940;-79
2021/10/17 15:47:46;;;;;;;;;;;;;;;1.99;89.41;99995.34;5003649;28;19964;-80
2021/10/17 15:50:11;;;;;;;;;;;;;;;1.92;89.25;99998.84;5003185;28;19960;-80
2021/10/17 15:52:36;;;;;;;;;;;;;;;1.94;89.11;100004.06;5002947;28;19918;-80
2021/10/17 15:55:02;;;;;;;;;;;;;;;1.80;89.17;100006.72;5003745;28;20012;-80
2021/10/17 15:57:28;;;;;;;;;;;;;;;1.76;88.72;100011.09;5003660;28;19917;-80
2021/10/17 15:59:56;;;;;;;;;;;;;;;1.76;88.90;99995.41;5001611;28;20376;-80
2021/10/17 16:02:22;;;;;;;;;;;;;;;1.80;90.26;99998.88;5002114;28;20328;-80
2021/10/17 16:04:47;;;;;;;;;;;;;;;1.99;92.96;100005.78;5002969;28;19917;-80
2021/10/17 16:07:13;;;;;;;;;;;;;;;2.42;96.72;100003.81;5003469;28;19924;-80
2021/10/17 16:09:38;;;;;;;;;;;;;;;2.70;99.81;100000.13;5003137;28;19921;-80
2021/10/17 16:12:04;;;;;;;;;;;;;;;2.89;100.00;100005.25;5002644;28;19922;-80
2021/10/17 16:14:29;;;;;;;;;;;;;;;2.99;100.00;100011.25;5000441;28;20285;-80
2021/10/17 16:16:55;;;;;;;;;;;;;;;3.03;100.00;100005.09;5002711;28;19961;-80
2021/10/17 16:19:20;;;;;;;;;;;;;;;3.05;100.00;99996.38;5002974;28;19987;-80
2021/10/17 16:21:45;;;;;;;;;;;;;;;3.13;100.00;100000.66;5003090;28;19963;-80
2021/10/17 16:24:11;;;;;;;;;;;;;;;3.19;100.00;100000.59;5002975;28;19918;-80
2021/10/17 16:26:36;;;;;;;;;;;;;;;3.19;100.00;100008.44;5002023;28;20420;-80
2021/10/17 16:29:03;;;;;;;;;;;;;;;3.21;100.00;100004.94;5000535;28;19917;-81
2021/10/17 16:31:29;;;;;;;;;;;;;;;3.30;100.00;100003.97;5001965;28;20846;-80
2021/10/17 16:33:54;;;;;;;;;;;;;;;3.32;100.00;100007.47;5002332;28;19918;-80
2021/10/17 16:36:21;;;;;;;;;;;;;;;3.25;100.00;100017.13;5001854;28;19917;-79
2021/10/17 16:38:48;;;;;;;;;;;;;;;3.29;100.00;100015.34;5001373;28;19929;-80
2021/10/17 16:41:13;;;;;;;;;;;;;;;3.34;100.00;100015.31;5001545;28;19925;-80
2021/10/17 16:43:40;;;;;;;;;;;;;;;3.32;100.00;100012.72;5001622;28;19926;-80
2021/10/17 16:46:06;;;;;;;;;;;;;;;3.31;100.00;100021.44;4999373;28;20012;-80
2021/10/17 16:48:31;;;;;;;;;;;;;;;3.36;100.00;100027.50;5001255;28;20361;-80
2021/10/17 16:50:57;;;;;;;;;;;;;;;3.37;100.00;100031.00;5001118;28;19928;-80
2021/10/17 16:53:22;;;;;;;;;;;;;;;3.41;100.00;100033.56;5000176;28;19917;-80
2021/10/17 16:55:48;;;;;;;;;;;;;;;3.44;100.00;100038.75;5001892;28;20154;-81
2021/10/17 16:58:14;;;;;;;;;;;;;;;3.50;100.00;100034.38;5001270;28;20004;-81
2021/10/17 17:00:39;;;;;;;;;;;;;;;3.42;100.00;100035.31;5000120;28;19918;-80
2021/10/17 17:03:05;;;;;;;;;;;;;;;3.50;100.00;100042.22;5001620;28;19960;-80
2021/10/17 17:05:30;;;;;;;;;;;;;;;3.40;100.00;100039.69;5001623;28;19926;-81
2021/10/17 17:07:56;;;;;;;;;;;;;;;3.43;100.00;100037.06;5001070;28;19924;-80
2021/10/17 17:10:22;;;;;;;;;;;;;;;3.39;100.00;100045.81;5001289;28;20392;-80
2021/10/17 17:12:48;;;;;;;;;;;;;;;3.40;100.00;100047.56;4999853;28;19917;-80
2021/10/17 17:15:13;;;;;;;;;;;;;;;3.43;100.00;100047.53;5000071;28;19960;-80
2021/10/17 17:17:39;;;;;;;;;;;;;;;3.43;100.00;100047.53;5001458;28;19926;-80
2021/10/17 17:20:05;;;;;;;;;;;;;;;3.43;100.00;100046.63;5001136;28;19925;-81
2021/10/17 17:22:31;;;;;;;;;;;;;;;3.43;100.00;100054.50;5000961;28;20024;-80
2021/10/17 17:24:57;;;;;;;;;;;;;;;3.46;100.00;100054.47;5001581;28;19985;-79
2021/10/17 17:27:24;;;;;;;;;;;;;;;3.53;100.00;100063.16;5001384;28;19941;-80
2021/10/17 17:29:49;;;;;;;;;;;;;;;3.50;100.00;100071.06;4998791;28;19922;-79
2021/10/17 17:32:15;;;;;;;;;;;;;;;3.50;100.00;100071.06;5001101;28;19925;-80
2021/10/17 17:34:40;;;;;;;;;;;;;;;3.51;100.00;100075.38;5001346;28;20360;-80
2021/10/17 17:37:06;;;;;;;;;;;;;;;3.55;100.00;100069.25;5001171;28;19918;-80
2021/10/17 17:39:31;;;;;;;;;;;;;;;3.54;100.00;100065.78;5001177;28;20004;-80
2021/10/17 17:41:57;;;;;;;;;;;;;;;3.54;100.00;100072.75;5000874;28;19918;-80
2021/10/17 17:44:25;;;;;;;;;;;;;;;3.58;100.00;100074.47;4999582;28;19918;-80
2021/10/17 17:46:50;;;;;;;;;;;;;;;3.58;100.00;100071.84;5001245;28;20012;-81
2021/10/17 17:49:16;;;;;;;;;;;;;;;3.62;100.00;100079.66;5004819;28;20538;-80
2021/10/17 17:51:41;;;;;;;;;;;;;;;3.64;100.00;100077.03;5004778;28;19929;-80
2021/10/17 17:54:06;;;;;;;;;;;;;;;3.67;100.00;100077.00;5004789;28;19918;-80
2021/10/17 17:56:31;;;;;;;;;;;;;;;3.67;100.00;100077.00;5003112;28;19928;-80
2021/10/17 17:58:57;;;;;;;;;;;;;;;3.70;100.00;100081.31;5003852;28;19924;-81
2021/10/17 18:01:22;;;;;;;;;;;;;;;3.72;100.00;100088.31;5004136;28;20024;-80
2021/10/17 18:03:49;;;;;;;;;;;;;;;3.74;100.00;100083.91;5003079;28;20357;-80
2021/10/17 18:06:15;;;;;;;;;;;;;;;3.76;100.00;100087.38;5004640;28;19917;-81
2021/10/17 18:08:40;;;;;;;;;;;;;;;3.75;99.12;100090.91;5004737;28;20427;-81
2021/10/17 18:11:05;;;;;;;;;;;;;;;3.77;98.35;100089.13;5004546;28;19928;-80
2021/10/17 18:13:31;;;;;;;;;;;;;;;3.82;97.54;100099.56;5004151;28;19918;-80
2021/10/17 18:15:56;;;;;;;;;;;;;;;3.84;96.87;100096.91;5001485;28;20024;-80
2021/10/17 18:18:22;;;;;;;;;;;;;;;3.86;96.01;100092.53;5003249;28;19953;-80
2021/10/17 18:20:47;;;;;;;;;;;;;;;3.87;95.39;100094.28;5003323;28;19948;-80
2021/10/17 18:23:13;;;;;;;;;;;;;;;3.90;94.79;100094.25;5004667;28;19922;-80
2021/10/17 18:25:40;;;;;;;;;;;;;;;3.95;94.46;100097.69;5004095;28;20269;-81
2021/10/17 18:28:07;;;;;;;;;;;;;;;3.99;94.08;100095.00;5004279;28;20024;-81
2021/10/17 18:30:33;;;;;;;;;;;;;;;3.98;93.23;100095.88;5002066;28;20323;-80
2021/10/17 18:32:58;;;;;;;;;;;;;;;4.04;92.97;100096.69;5003818;28;19928;-80
2021/10/17 18:35:24;;;;;;;;;;;;;;;4.03;92.37;100106.31;5004256;28;19926;-81
2021/10/17 18:37:49;;;;;;;;;;;;;;;4.07;91.93;100108.03;5003732;28;19918;-80
2021/10/17 18:40:14;;;;;;;;;;;;;;;4.06;91.36;100108.06;5003683;28;19975;-81
2021/10/17 18:42:39;;;;;;;;;;;;;;;4.06;90.63;100116.78;5003828;28;19976;-80
2021/10/17 18:45:06;;;;;;;;;;;;;;;4.12;90.40;100110.63;5002168;28;19929;-81
2021/10/17 18:47:34;;;;;;;;;;;;;;;4.10;90.09;100105.38;5003620;28;19921;-81
2021/10/17 18:50:00;;;;;;;;;;;;;;;4.13;89.76;100104.47;5003228;28;19932;-81
2021/10/17 18:52:26;;;;;;;;;;;;;;;4.16;89.41;100107.94;5004454;28;20491;-80
2021/10/17 18:54:51;;;;;;;;;;;;;;;4.16;88.84;100110.56;5003073;28;19925;-80
2021/10/17 18:57:21;;;;;;;;;;;;;;;4.19;88.59;100115.75;5003025;28;20059;-81
2021/10/17 18:59:46;;;;;;;;;;;;;;;4.18;88.17;100115.78;5002028;28;20372;-80
2021/10/17 19:02:12;;;;;;;;;;;;;;;4.20;87.91;100121.88;5003573;28;19924;-81
2021/10/17 19:04:37;;;;;;;;;;;;;;;4.22;87.47;100124.47;5003614;28;19925;-80
2021/10/17 19:07:02;;;;;;;;;;;;;;;4.27;87.34;100125.28;5003180;28;19924;-80
2021/10/17 19:09:27;;;;;;;;;;;;;;;4.27;86.78;100133.16;5003376;28;19929;-80
2021/10/17 19:11:53;;;;;;;;;;;;;;;4.25;86.60;100137.56;5003275;28;19921;-80
2021/10/17 19:14:18;;;;;;;;;;;;;;;4.29;86.34;100134.00;5002336;28;19925;-80
2021/10/17 19:16:47;;;;;;;;;;;;;;;4.29;86.32;100136.63;5003406;28;20003;-81
2021/10/17 19:19:12;;;;;;;;;;;;;;;4.30;86.20;100135.75;5002988;28;20013;-80
2021/10/17 19:21:38;;;;;;;;;;;;;;;4.31;86.00;100142.75;5001780;28;20017;-80
2021/10/17 19:24:03;;;;;;;;;;;;;;;4.34;85.87;100135.72;5003175;28;19921;-80
2021/10/17 19:26:28;;;;;;;;;;;;;;;4.34;85.60;100145.31;5003552;28;19929;-80
2021/10/17 19:28:54;;;;;;;;;;;;;;;4.36;85.55;100146.19;5002733;28;19918;-81
2021/10/17 19:31:19;;;;;;;;;;;;;;;4.36;85.08;100146.19;5000560;28;19940;-81
2021/10/17 19:33:45;;;;;;;;;;;;;;;4.40;85.08;100149.63;5002651;28;19918;-81
2021/10/17 19:36:10;;;;;;;;;;;;;;;4.40;84.83;100147.00;5002984;28;19928;-80
2021/10/17 19:38:36;;;;;;;;;;;;;;;4.42;84.81;100153.97;5002942;28;19917;-80
2021/10/17 19:41:01;;;;;;;;;;;;;;;4.44;84.70;100159.22;5002786;28;19976;-80
2021/10/17 19:43:27;;;;;;;;;;;;;;;4.46;84.70;100168.78;5002626;28;20254;-80
2021/10/17 19:45:52;;;;;;;;;;;;;;;4.47;84.35;100170.53;5000138;28;20336;-81
2021/10/17 19:48:17;;;;;;;;;;;;;;;4.46;84.19;100179.28;5002895;28;19925;-80
2021/10/17 19:50:42;;;;;;;;;;;;;;;4.49;84.37;100183.63;4986503;28;20333;-80
2021/10/17 19:53:08;;;;;;;;;;;;;;;4.50;84.08;100190.59;4982501;28;20368;-80
2021/10/17 19:55:34;;;;;;;;;;;;;;;4.53;84.17;100191.47;4982934;28;19921;-80
2021/10/17 19:57:59;;;;;;;;;;;;;;;4.53;83.94;100188.84;4983302;28;20016;-81
2021/10/17 20:00:24;;;;;;;;;;;;;;;4.53;83.92;100185.31;4980151;28;19926;-80
2021/10/17 20:02:51;;;;;;;;;;;;;;;4.57;83.80;100187.03;4981093;28;20536;-81
2021/10/17 20:05:17;;;;;;;;;;;;;;;4.53;83.59;100183.59;4982655;28;20004;-80
2021/10/17 20:07:42;;;;;;;;;;;;;;;4.60;83.55;100183.53;4982517;28;20001;-80
2021/10/17 20:10:08;;;;;;;;;;;;;;;4.60;83.37;100191.41;4982388;28;20008;-80
2021/10/17 20:12:34;;;;;;;;;;;;;;;4.66;83.78;100188.66;4982811;28;19996;-80
2021/10/17 20:14:59;;;;;;;;;;;;;;;4.66;83.51;100200.06;4979664;28;19929;-80
2021/10/17 20:17:25;;;;;;;;;;;;;;;4.68;83.35;100200.03;4982514;28;19991;-80
2021/10/17 20:19:50;;;;;;;;;;;;;;;4.66;83.09;100204.41;4982905;28;19922;-80
2021/10/17 20:22:15;;;;;;;;;;;;;;;4.69;83.07;100200.03;4981337;28;19928;-79
2021/10/17 20:24:40;;;;;;;;;;;;;;;4.73;83.07;100203.47;4982061;28;19925;-80
2021/10/17 20:27:06;;;;;;;;;;;;;;;4.74;82.86;100194.72;4982310;28;20025;-80
2021/10/17 20:29:31;;;;;;;;;;;;;;;4.73;82.75;100199.09;4980488;28;20345;-80
2021/10/17 20:31:56;;;;;;;;;;;;;;;4.76;82.73;100198.19;4982552;28;19969;-81
2021/10/17 20:34:22;;;;;;;;;;;;;;;4.79;82.78;100198.16;4980388;28;20289;-80
2021/10/17 20:36:50;;;;;;;;;;;;;;;4.80;82.58;100201.63;4981144;28;19918;-81
2021/10/17 20:41:50;;;;;;;;;;;;;;;4.85;82.88;100205.97;4982238;28;19924;-80
2021/10/17 20:44:15;;;;;;;;;;;;;;;4.86;82.79;100205.03;4981095;28;20345;-81
2021/10/17 20:46:41;;;;;;;;;;;;;;;4.88;82.81;100199.78;4981855;28;19929;-81
2021/10/17 20:49:06;;;;;;;;;;;;;;;4.91;82.59;100198.00;4981907;28;20301;-80
2021/10/17 20:51:32;;;;;;;;;;;;;;;4.91;82.52;100200.63;4982287;28;19918;-81
2021/10/17 20:53:57;;;;;;;;;;;;;;;4.92;82.25;100201.50;4980961;28;19929;-80
2021/10/17 20:56:23;;;;;;;;;;;;;;;4.92;82.13;100198.84;4981968;28;19962;-81
2021/10/17 20:58:48;;;;;;;;;;;;;;;4.96;82.21;100190.03;4981794;28;19929;-81
2021/10/17 21:01:13;;;;;;;;;;;;;;;4.97;82.09;100191.78;4980955;28;19968;-80
2021/10/17 21:03:38;;;;;;;;;;;;;;;4.98;82.07;100200.53;4982219;28;20025;-81
2021/10/17 21:06:04;;;;;;;;;;;;;;;5.00;82.14;100209.28;4981717;28;19918;-81
2021/10/17 21:08:29;;;;;;;;;;;;;;;5.02;81.94;100208.34;4981928;28;19932;-81
2021/10/17 21:10:54;;;;;;;;;;;;;;;5.03;82.04;100211.84;4982625;28;19918;-81
2021/10/17 21:13:19;;;;;;;;;;;;;;;5.05;81.87;100210.94;4981694;28;19918;-81
2021/10/17 21:15:45;;;;;;;;;;;;;;;5.05;81.98;100204.81;4980631;28;19918;-81
2021/10/17 21:18:10;;;;;;;;;;;;;;;5.09;82.04;100203.91;4981527;28;19914;-80
2021/10/17 21:20:35;;;;;;;;;;;;;;;5.09;81.97;100204.75;4983160;28;19918;-80
2021/10/17 21:23:00;;;;;;;;;;;;;;;5.14;81.92;100207.31;4985688;28;19918;-81
2021/10/17 21:25:26;;;;;;;;;;;;;;;5.13;82.12;100208.19;4985582;28;19922;-80
2021/10/17 21:27:53;;;;;;;;;;;;;;;5.17;82.05;100215.16;4985595;28;19917;-81
2021/10/17 21:30:18;;;;;;;;;;;;;;;5.16;82.04;100213.41;4984519;28;19925;-81
2021/10/17 21:32:43;;;;;;;;;;;;;;;5.22;82.34;100215.97;4985383;28;20358;-81
2021/10/17 21:35:09;;;;;;;;;;;;;;;5.24;82.27;100227.31;4985506;28;19933;-80
2021/10/17 21:37:34;;;;;;;;;;;;;;;5.24;82.24;100234.34;4985660;28;19976;-80
2021/10/17 21:39:59;;;;;;;;;;;;;;;5.23;82.25;100230.84;4985491;28;19922;-81
2021/10/17 21:42:24;;;;;;;;;;;;;;;5.26;82.04;100230.81;4985316;28;20277;-81
2021/10/17 21:44:50;;;;;;;;;;;;;;;5.27;82.12;100232.53;4984105;28;19950;-81
2021/10/17 21:47:15;;;;;;;;;;;;;;;5.27;82.18;100237.78;4985316;28;19929;-80
2021/10/17 21:49:40;;;;;;;;;;;;;;;5.31;82.15;100240.38;4985616;28;19980;-78
2021/10/17 21:52:06;;;;;;;;;;;;;;;5.32;82.01;100228.97;4984995;28;20009;-81
2021/10/17 21:54:31;;;;;;;;;;;;;;;5.35;82.17;100221.06;4985114;28;19951;-81
2021/10/17 21:56:57;;;;;;;;;;;;;;;5.32;82.06;100214.06;4985640;28;19984;-79
2021/10/17 21:59:22;;;;;;;;;;;;;;;5.33;81.88;100221.06;4983978;28;19922;-81
2021/10/17 22:01:48;;;;;;;;;;;;;;;5.35;82.02;100214.03;4983864;28;20358;-80
2021/10/17 22:04:13;;;;;;;;;;;;;;;5.38;82.06;100203.47;4984947;28;19924;-81
2021/10/17 22:06:38;;;;;;;;;;;;;;;5.37;81.94;100192.97;4985552;28;20380;-81
2021/10/17 22:09:05;;;;;;;;;;;;;;;5.37;81.95;100190.34;4984966;28;19914;-81
2021/10/17 22:11:30;;;;;;;;;;;;;;;5.38;81.88;100186.84;4984804;28;19980;-81
2021/10/17 22:13:55;;;;;;;;;;;;;;;5.41;81.65;100199.94;4984739;28;19957;-81
2021/10/17 22:16:21;;;;;;;;;;;;;;;5.41;81.84;100197.31;4982552;28;19925;-80